Los Angeles, California
Traffic Map
Current Weather Conditions
Los Angeles, California
Clear
Clear
25°
Feels Like: 26°
Wind Chill: 25° Ceiling: Unl
Heat Index: 26° Visibility: 10mi
Dew Point: 13° Wind: 5mph
Humidity: 46% Direction: ° ()
Pressure: 29.88in Gusts: 0mph
Raw Report DataKCQT 222347Z AUTO VRB04KT 10SM CLR 25/13 A2988 RMK AO2 SLP115 T02500128 10289 20244 58002
Traffic Incident Summary
Active as of:
Severity:
Category:
InformationThere was an issue retrieving the traffic information for this location. Please try a different location or try again shortly.
Advertisements
Track Severe Weather on mobile